sensor_id;sensor_type;location;lat;lon;timestamp;P1;durP1;ratioP1;P2;durP2;ratioP2
33022;SDS011;19390;51.460;5.710;2023-04-03T00:00:56;12.80;;;8.52;;
33022;SDS011;19390;51.460;5.710;2023-04-03T00:03:22;10.10;;;8.02;;
33022;SDS011;19390;51.460;5.710;2023-04-03T00:05:48;11.32;;;9.00;;
33022;SDS011;19390;51.460;5.710;2023-04-03T00:08:13;13.50;;;8.55;;
33022;SDS011;19390;51.460;5.710;2023-04-03T00:10:39;13.02;;;7.88;;
33022;SDS011;19390;51.460;5.710;2023-04-03T00:13:05;12.52;;;9.00;;
33022;SDS011;19390;51.460;5.710;2023-04-03T00:15:32;11.85;;;9.05;;
33022;SDS011;19390;51.460;5.710;2023-04-03T00:17:58;10.82;;;7.93;;
33022;SDS011;19390;51.460;5.710;2023-04-03T00:20:24;14.18;;;10.15;;
33022;SDS011;19390;51.460;5.710;2023-04-03T00:22:51;15.70;;;10.25;;
33022;SDS011;19390;51.460;5.710;2023-04-03T00:25:16;11.98;;;9.98;;
33022;SDS011;19390;51.460;5.710;2023-04-03T00:27:42;19.38;;;10.88;;
33022;SDS011;19390;51.460;5.710;2023-04-03T00:30:08;19.05;;;11.35;;
33022;SDS011;19390;51.460;5.710;2023-04-03T00:32:37;18.25;;;11.15;;
33022;SDS011;19390;51.460;5.710;2023-04-03T00:35:03;14.25;;;10.95;;
33022;SDS011;19390;51.460;5.710;2023-04-03T00:37:30;17.98;;;11.25;;
33022;SDS011;19390;51.460;5.710;2023-04-03T00:39:55;14.10;;;10.02;;
33022;SDS011;19390;51.460;5.710;2023-04-03T00:42:21;12.63;;;9.82;;
33022;SDS011;19390;51.460;5.710;2023-04-03T00:47:13;14.45;;;9.13;;
33022;SDS011;19390;51.460;5.710;2023-04-03T00:49:42;14.05;;;9.75;;
33022;SDS011;19390;51.460;5.710;2023-04-03T00:52:10;13.73;;;8.90;;
33022;SDS011;19390;51.460;5.710;2023-04-03T00:54:41;15.38;;;10.80;;
33022;SDS011;19390;51.460;5.710;2023-04-03T00:57:08;13.77;;;10.20;;
33022;SDS011;19390;51.460;5.710;2023-04-03T00:59:38;15.38;;;10.23;;
33022;SDS011;19390;51.460;5.710;2023-04-03T01:02:09;14.88;;;9.02;;
33022;SDS011;19390;51.460;5.710;2023-04-03T01:04:39;16.35;;;11.55;;
33022;SDS011;19390;51.460;5.710;2023-04-03T01:09:33;13.95;;;10.38;;
33022;SDS011;19390;51.460;5.710;2023-04-03T01:14:45;14.60;;;10.73;;
33022;SDS011;19390;51.460;5.710;2023-04-03T01:25:39;14.35;;;11.55;;
33022;SDS011;19390;51.460;5.710;2023-04-03T01:28:07;17.92;;;11.52;;
33022;SDS011;19390;51.460;5.710;2023-04-03T01:30:36;17.95;;;11.80;;
33022;SDS011;19390;51.460;5.710;2023-04-03T01:33:24;16.65;;;12.00;;
33022;SDS011;19390;51.460;5.710;2023-04-03T01:35:50;16.83;;;11.65;;
33022;SDS011;19390;51.460;5.710;2023-04-03T01:38:16;22.27;;;13.02;;
33022;SDS011;19390;51.460;5.710;2023-04-03T01:40:41;19.20;;;12.32;;
33022;SDS011;19390;51.460;5.710;2023-04-03T01:43:07;25.15;;;13.88;;
33022;SDS011;19390;51.460;5.710;2023-04-03T01:45:33;20.83;;;13.93;;
33022;SDS011;19390;51.460;5.710;2023-04-03T01:47:58;19.70;;;13.48;;
33022;SDS011;19390;51.460;5.710;2023-04-03T01:50:24;18.67;;;14.25;;
33022;SDS011;19390;51.460;5.710;2023-04-03T01:52:50;21.17;;;13.90;;
33022;SDS011;19390;51.460;5.710;2023-04-03T01:55:15;18.95;;;12.38;;
33022;SDS011;19390;51.460;5.710;2023-04-03T01:57:41;15.88;;;11.40;;
33022;SDS011;19390;51.460;5.710;2023-04-03T02:00:07;14.82;;;10.38;;
33022;SDS011;19390;51.460;5.710;2023-04-03T02:02:33;19.20;;;12.52;;
33022;SDS011;19390;51.460;5.710;2023-04-03T02:04:59;21.20;;;12.70;;
33022;SDS011;19390;51.460;5.710;2023-04-03T02:07:25;20.00;;;14.00;;
33022;SDS011;19390;51.460;5.710;2023-04-03T02:09:50;17.52;;;13.68;;
33022;SDS011;19390;51.460;5.710;2023-04-03T02:12:16;20.20;;;13.55;;
33022;SDS011;19390;51.460;5.710;2023-04-03T02:14:42;22.67;;;14.73;;
33022;SDS011;19390;51.460;5.710;2023-04-03T02:17:08;22.50;;;14.18;;
33022;SDS011;19390;51.460;5.710;2023-04-03T02:19:34;24.17;;;14.55;;
33022;SDS011;19390;51.460;5.710;2023-04-03T02:22:01;17.88;;;12.20;;
33022;SDS011;19390;51.460;5.710;2023-04-03T02:24:27;16.90;;;12.25;;
33022;SDS011;19390;51.460;5.710;2023-04-03T02:26:53;18.00;;;13.25;;
33022;SDS011;19390;51.460;5.710;2023-04-03T02:29:19;17.23;;;13.27;;
33022;SDS011;19390;51.460;5.710;2023-04-03T02:31:45;16.50;;;12.48;;
33022;SDS011;19390;51.460;5.710;2023-04-03T02:34:10;23.50;;;13.43;;
33022;SDS011;19390;51.460;5.710;2023-04-03T02:36:36;19.27;;;12.85;;
33022;SDS011;19390;51.460;5.710;2023-04-03T02:39:02;19.70;;;13.05;;
33022;SDS011;19390;51.460;5.710;2023-04-03T02:41:28;18.75;;;13.18;;
33022;SDS011;19390;51.460;5.710;2023-04-03T02:43:59;17.20;;;12.23;;
33022;SDS011;19390;51.460;5.710;2023-04-03T02:46:26;20.90;;;13.52;;
33022;SDS011;19390;51.460;5.710;2023-04-03T02:48:51;17.70;;;13.70;;
33022;SDS011;19390;51.460;5.710;2023-04-03T02:51:17;15.63;;;11.88;;
33022;SDS011;19390;51.460;5.710;2023-04-03T02:53:42;21.08;;;12.13;;
33022;SDS011;19390;51.460;5.710;2023-04-03T02:56:08;16.90;;;12.15;;
33022;SDS011;19390;51.460;5.710;2023-04-03T02:58:34;17.17;;;12.20;;
33022;SDS011;19390;51.460;5.710;2023-04-03T03:01:00;19.30;;;11.60;;
33022;SDS011;19390;51.460;5.710;2023-04-03T03:03:26;17.48;;;10.43;;
33022;SDS011;19390;51.460;5.710;2023-04-03T03:06:08;17.92;;;11.32;;
33022;SDS011;19390;51.460;5.710;2023-04-03T03:08:35;14.70;;;10.77;;
33022;SDS011;19390;51.460;5.710;2023-04-03T03:11:01;15.05;;;10.20;;
33022;SDS011;19390;51.460;5.710;2023-04-03T03:13:28;14.82;;;10.23;;
33022;SDS011;19390;51.460;5.710;2023-04-03T03:15:54;15.63;;;9.63;;
33022;SDS011;19390;51.460;5.710;2023-04-03T03:18:19;14.82;;;10.18;;
33022;SDS011;19390;51.460;5.710;2023-04-03T03:20:45;17.48;;;10.43;;
33022;SDS011;19390;51.460;5.710;2023-04-03T03:23:11;13.50;;;8.95;;
33022;SDS011;19390;51.460;5.710;2023-04-03T03:25:37;12.73;;;8.25;;
33022;SDS011;19390;51.460;5.710;2023-04-03T03:28:04;17.77;;;9.27;;
33022;SDS011;19390;51.460;5.710;2023-04-03T03:30:30;16.98;;;9.57;;
33022;SDS011;19390;51.460;5.710;2023-04-03T03:32:55;18.23;;;10.10;;
33022;SDS011;19390;51.460;5.710;2023-04-03T03:35:21;18.60;;;9.75;;
33022;SDS011;19390;51.460;5.710;2023-04-03T03:37:47;12.00;;;9.00;;
33022;SDS011;19390;51.460;5.710;2023-04-03T03:40:13;15.75;;;9.45;;
33022;SDS011;19390;51.460;5.710;2023-04-03T03:42:39;14.32;;;9.05;;
33022;SDS011;19390;51.460;5.710;2023-04-03T03:45:05;15.25;;;9.82;;
33022;SDS011;19390;51.460;5.710;2023-04-03T03:47:31;15.43;;;7.80;;
33022;SDS011;19390;51.460;5.710;2023-04-03T03:49:57;14.43;;;9.07;;
33022;SDS011;19390;51.460;5.710;2023-04-03T03:52:23;16.17;;;9.25;;
33022;SDS011;19390;51.460;5.710;2023-04-03T03:54:49;11.07;;;8.63;;
33022;SDS011;19390;51.460;5.710;2023-04-03T03:57:15;14.60;;;8.70;;
33022;SDS011;19390;51.460;5.710;2023-04-03T03:59:41;11.65;;;8.63;;
33022;SDS011;19390;51.460;5.710;2023-04-03T04:02:06;11.75;;;7.28;;
33022;SDS011;19390;51.460;5.710;2023-04-03T04:04:32;11.98;;;7.82;;
33022;SDS011;19390;51.460;5.710;2023-04-03T04:06:58;13.48;;;8.20;;
33022;SDS011;19390;51.460;5.710;2023-04-03T04:09:25;11.57;;;7.88;;
33022;SDS011;19390;51.460;5.710;2023-04-03T04:11:51;11.05;;;7.05;;
33022;SDS011;19390;51.460;5.710;2023-04-03T04:14:18;8.85;;;6.70;;
33022;SDS011;19390;51.460;5.710;2023-04-03T04:16:47;12.88;;;7.43;;
33022;SDS011;19390;51.460;5.710;2023-04-03T04:19:13;11.77;;;7.88;;
33022;SDS011;19390;51.460;5.710;2023-04-03T04:21:40;11.00;;;6.75;;
33022;SDS011;19390;51.460;5.710;2023-04-03T04:24:06;12.57;;;8.00;;
33022;SDS011;19390;51.460;5.710;2023-04-03T04:26:32;11.43;;;7.18;;
33022;SDS011;19390;51.460;5.710;2023-04-03T04:28:58;11.98;;;7.93;;
33022;SDS011;19390;51.460;5.710;2023-04-03T04:31:23;12.90;;;7.47;;
33022;SDS011;19390;51.460;5.710;2023-04-03T04:33:49;12.85;;;7.38;;
33022;SDS011;19390;51.460;5.710;2023-04-03T04:36:15;15.70;;;6.45;;
33022;SDS011;19390;51.460;5.710;2023-04-03T04:38:41;11.88;;;6.93;;
33022;SDS011;19390;51.460;5.710;2023-04-03T04:41:07;8.50;;;6.43;;
33022;SDS011;19390;51.460;5.710;2023-04-03T04:43:33;13.07;;;6.65;;
33022;SDS011;19390;51.460;5.710;2023-04-03T04:46:03;12.02;;;7.03;;
33022;SDS011;19390;51.460;5.710;2023-04-03T04:48:31;10.60;;;6.38;;
33022;SDS011;19390;51.460;5.710;2023-04-03T04:50:58;9.85;;;5.93;;
33022;SDS011;19390;51.460;5.710;2023-04-03T04:53:23;12.27;;;5.93;;
33022;SDS011;19390;51.460;5.710;2023-04-03T04:55:49;11.30;;;6.75;;
33022;SDS011;19390;51.460;5.710;2023-04-03T04:58:14;9.70;;;5.97;;
33022;SDS011;19390;51.460;5.710;2023-04-03T05:00:40;11.50;;;5.28;;
33022;SDS011;19390;51.460;5.710;2023-04-03T05:03:06;7.90;;;4.95;;
33022;SDS011;19390;51.460;5.710;2023-04-03T05:05:31;11.90;;;5.22;;
33022;SDS011;19390;51.460;5.710;2023-04-03T05:07:57;7.78;;;4.78;;
33022;SDS011;19390;51.460;5.710;2023-04-03T05:10:22;7.32;;;4.57;;
33022;SDS011;19390;51.460;5.710;2023-04-03T05:12:48;11.13;;;4.63;;
33022;SDS011;19390;51.460;5.710;2023-04-03T05:15:14;12.50;;;4.45;;
33022;SDS011;19390;51.460;5.710;2023-04-03T05:17:39;9.40;;;4.78;;
33022;SDS011;19390;51.460;5.710;2023-04-03T05:20:05;7.40;;;4.35;;
33022;SDS011;19390;51.460;5.710;2023-04-03T05:22:32;11.30;;;4.70;;
33022;SDS011;19390;51.460;5.710;2023-04-03T05:24:58;17.38;;;5.40;;
33022;SDS011;19390;51.460;5.710;2023-04-03T05:27:23;10.15;;;5.05;;
33022;SDS011;19390;51.460;5.710;2023-04-03T05:29:49;5.55;;;4.30;;
33022;SDS011;19390;51.460;5.710;2023-04-03T05:32:17;10.52;;;3.38;;
33022;SDS011;19390;51.460;5.710;2023-04-03T05:34:42;9.27;;;3.78;;
33022;SDS011;19390;51.460;5.710;2023-04-03T05:37:08;16.58;;;5.75;;
33022;SDS011;19390;51.460;5.710;2023-04-03T05:39:34;9.93;;;3.38;;
33022;SDS011;19390;51.460;5.710;2023-04-03T05:42:00;5.05;;;3.10;;
33022;SDS011;19390;51.460;5.710;2023-04-03T05:44:25;7.05;;;2.53;;
33022;SDS011;19390;51.460;5.710;2023-04-03T05:46:51;7.30;;;3.00;;
33022;SDS011;19390;51.460;5.710;2023-04-03T05:49:17;7.55;;;3.13;;
33022;SDS011;19390;51.460;5.710;2023-04-03T05:51:43;8.18;;;2.90;;
33022;SDS011;19390;51.460;5.710;2023-04-03T05:54:12;7.22;;;2.67;;
33022;SDS011;19390;51.460;5.710;2023-04-03T05:56:43;5.25;;;2.53;;
33022;SDS011;19390;51.460;5.710;2023-04-03T05:59:09;7.75;;;2.53;;
33022;SDS011;19390;51.460;5.710;2023-04-03T06:01:34;11.90;;;3.08;;
33022;SDS011;19390;51.460;5.710;2023-04-03T06:04:00;7.13;;;2.00;;
33022;SDS011;19390;51.460;5.710;2023-04-03T06:06:26;8.10;;;2.15;;
33022;SDS011;19390;51.460;5.710;2023-04-03T06:09:22;4.35;;;1.75;;
33022;SDS011;19390;51.460;5.710;2023-04-03T06:11:49;7.18;;;2.53;;
33022;SDS011;19390;51.460;5.710;2023-04-03T06:14:16;3.75;;;2.00;;
33022;SDS011;19390;51.460;5.710;2023-04-03T06:16:41;6.40;;;1.92;;
33022;SDS011;19390;51.460;5.710;2023-04-03T06:19:08;7.45;;;2.35;;
33022;SDS011;19390;51.460;5.710;2023-04-03T06:21:35;16.63;;;8.02;;
33022;SDS011;19390;51.460;5.710;2023-04-03T06:24:02;6.40;;;2.50;;
33022;SDS011;19390;51.460;5.710;2023-04-03T06:26:29;13.00;;;5.82;;
33022;SDS011;19390;51.460;5.710;2023-04-03T06:28:55;11.98;;;5.78;;
33022;SDS011;19390;51.460;5.710;2023-04-03T06:31:21;18.95;;;10.65;;
33022;SDS011;19390;51.460;5.710;2023-04-03T06:33:47;19.80;;;11.32;;
33022;SDS011;19390;51.460;5.710;2023-04-03T06:36:13;36.53;;;20.65;;
33022;SDS011;19390;51.460;5.710;2023-04-03T06:38:39;12.23;;;6.20;;
33022;SDS011;19390;51.460;5.710;2023-04-03T06:41:04;56.45;;;22.90;;
33022;SDS011;19390;51.460;5.710;2023-04-03T06:43:30;40.42;;;18.10;;
33022;SDS011;19390;51.460;5.710;2023-04-03T06:45:57;59.60;;;24.48;;
33022;SDS011;19390;51.460;5.710;2023-04-03T06:48:23;22.98;;;13.75;;
33022;SDS011;19390;51.460;5.710;2023-04-03T06:50:48;6.63;;;4.32;;
33022;SDS011;19390;51.460;5.710;2023-04-03T06:53:14;10.95;;;8.55;;
33022;SDS011;19390;51.460;5.710;2023-04-03T06:55:40;7.07;;;2.55;;
33022;SDS011;19390;51.460;5.710;2023-04-03T06:58:06;8.40;;;3.92;;
33022;SDS011;19390;51.460;5.710;2023-04-03T07:00:31;4.78;;;1.95;;
33022;SDS011;19390;51.460;5.710;2023-04-03T07:02:57;7.07;;;2.28;;
33022;SDS011;19390;51.460;5.710;2023-04-03T07:05:23;6.70;;;3.10;;
33022;SDS011;19390;51.460;5.710;2023-04-03T07:07:52;4.95;;;1.92;;
33022;SDS011;19390;51.460;5.710;2023-04-03T07:10:18;5.13;;;2.05;;
33022;SDS011;19390;51.460;5.710;2023-04-03T07:12:44;4.38;;;1.75;;
33022;SDS011;19390;51.460;5.710;2023-04-03T07:15:10;3.95;;;1.90;;
33022;SDS011;19390;51.460;5.710;2023-04-03T07:17:38;4.35;;;1.75;;
33022;SDS011;19390;51.460;5.710;2023-04-03T07:20:04;5.57;;;1.95;;
33022;SDS011;19390;51.460;5.710;2023-04-03T07:22:32;5.07;;;1.90;;
33022;SDS011;19390;51.460;5.710;2023-04-03T07:25:04;6.80;;;2.08;;
33022;SDS011;19390;51.460;5.710;2023-04-03T07:27:32;5.72;;;2.10;;
33022;SDS011;19390;51.460;5.710;2023-04-03T07:29:58;5.18;;;1.55;;
33022;SDS011;19390;51.460;5.710;2023-04-03T07:32:24;6.80;;;1.80;;
33022;SDS011;19390;51.460;5.710;2023-04-03T07:34:50;5.95;;;1.80;;
33022;SDS011;19390;51.460;5.710;2023-04-03T07:37:16;4.15;;;1.55;;
33022;SDS011;19390;51.460;5.710;2023-04-03T07:39:43;3.72;;;1.73;;
33022;SDS011;19390;51.460;5.710;2023-04-03T07:42:09;7.80;;;2.22;;
33022;SDS011;19390;51.460;5.710;2023-04-03T07:44:35;7.05;;;1.70;;
33022;SDS011;19390;51.460;5.710;2023-04-03T07:47:01;10.10;;;1.83;;
33022;SDS011;19390;51.460;5.710;2023-04-03T07:49:27;8.10;;;1.70;;
33022;SDS011;19390;51.460;5.710;2023-04-03T07:51:53;5.47;;;1.95;;
33022;SDS011;19390;51.460;5.710;2023-04-03T07:54:19;5.95;;;1.88;;
33022;SDS011;19390;51.460;5.710;2023-04-03T07:56:45;7.82;;;1.90;;
33022;SDS011;19390;51.460;5.710;2023-04-03T07:59:10;4.40;;;2.00;;
33022;SDS011;19390;51.460;5.710;2023-04-03T08:01:36;4.97;;;1.50;;
33022;SDS011;19390;51.460;5.710;2023-04-03T08:04:02;4.82;;;1.67;;
33022;SDS011;19390;51.460;5.710;2023-04-03T08:06:28;4.97;;;1.60;;
33022;SDS011;19390;51.460;5.710;2023-04-03T08:08:56;5.43;;;1.85;;
33022;SDS011;19390;51.460;5.710;2023-04-03T08:11:23;4.78;;;1.88;;
33022;SDS011;19390;51.460;5.710;2023-04-03T08:13:52;3.50;;;1.10;;
33022;SDS011;19390;51.460;5.710;2023-04-03T08:16:18;6.45;;;1.65;;
33022;SDS011;19390;51.460;5.710;2023-04-03T08:18:47;4.00;;;1.50;;
33022;SDS011;19390;51.460;5.710;2023-04-03T08:21:13;4.57;;;1.40;;
33022;SDS011;19390;51.460;5.710;2023-04-03T08:23:39;3.55;;;1.52;;
33022;SDS011;19390;51.460;5.710;2023-04-03T08:26:12;3.83;;;1.20;;
33022;SDS011;19390;51.460;5.710;2023-04-03T08:28:39;5.40;;;1.70;;
33022;SDS011;19390;51.460;5.710;2023-04-03T08:31:06;6.15;;;1.98;;
33022;SDS011;19390;51.460;5.710;2023-04-03T08:33:36;5.30;;;1.48;;
33022;SDS011;19390;51.460;5.710;2023-04-03T08:36:03;6.03;;;1.70;;
33022;SDS011;19390;51.460;5.710;2023-04-03T08:38:30;4.60;;;1.58;;
33022;SDS011;19390;51.460;5.710;2023-04-03T08:41:01;4.75;;;1.63;;
33022;SDS011;19390;51.460;5.710;2023-04-03T08:43:35;3.35;;;1.20;;
33022;SDS011;19390;51.460;5.710;2023-04-03T08:46:13;3.03;;;1.30;;
33022;SDS011;19390;51.460;5.710;2023-04-03T08:48:41;3.95;;;1.30;;
33022;SDS011;19390;51.460;5.710;2023-04-03T08:51:16;4.03;;;1.85;;
33022;SDS011;19390;51.460;5.710;2023-04-03T08:53:55;4.97;;;1.40;;
33022;SDS011;19390;51.460;5.710;2023-04-03T08:56:27;3.88;;;1.55;;
33022;SDS011;19390;51.460;5.710;2023-04-03T08:58:59;3.53;;;1.52;;
33022;SDS011;19390;51.460;5.710;2023-04-03T09:01:34;4.22;;;1.40;;
33022;SDS011;19390;51.460;5.710;2023-04-03T09:04:02;4.93;;;1.48;;
33022;SDS011;19390;51.460;5.710;2023-04-03T09:06:34;2.63;;;1.33;;
33022;SDS011;19390;51.460;5.710;2023-04-03T09:14:48;4.15;;;1.30;;
33022;SDS011;19390;51.460;5.710;2023-04-03T09:17:35;3.95;;;1.23;;
33022;SDS011;19390;51.460;5.710;2023-04-03T09:22:59;4.47;;;1.40;;
33022;SDS011;19390;51.460;5.710;2023-04-03T09:25:29;2.60;;;1.00;;
33022;SDS011;19390;51.460;5.710;2023-04-03T09:27:58;1.58;;;0.52;;
33022;SDS011;19390;51.460;5.710;2023-04-03T09:30:25;2.90;;;1.00;;
33022;SDS011;19390;51.460;5.710;2023-04-03T09:32:53;2.63;;;0.93;;
33022;SDS011;19390;51.460;5.710;2023-04-03T09:37:49;1.63;;;0.73;;
33022;SDS011;19390;51.460;5.710;2023-04-03T09:42:58;2.92;;;0.90;;
33022;SDS011;19390;51.460;5.710;2023-04-03T09:45:30;2.60;;;1.13;;
33022;SDS011;19390;51.460;5.710;2023-04-03T09:48:05;6.18;;;4.18;;
33022;SDS011;19390;51.460;5.710;2023-04-03T09:53:26;2.45;;;0.55;;
33022;SDS011;19390;51.460;5.710;2023-04-03T09:55:59;2.17;;;1.55;;
33022;SDS011;19390;51.460;5.710;2023-04-03T09:58:32;1.88;;;0.70;;
33022;SDS011;19390;51.460;5.710;2023-04-03T10:01:03;3.20;;;0.93;;
33022;SDS011;19390;51.460;5.710;2023-04-03T10:03:30;3.50;;;0.80;;
33022;SDS011;19390;51.460;5.710;2023-04-03T10:05:59;1.58;;;0.70;;
33022;SDS011;19390;51.460;5.710;2023-04-03T10:08:27;1.80;;;1.30;;
33022;SDS011;19390;51.460;5.710;2023-04-03T10:11:11;2.50;;;1.40;;
33022;SDS011;19390;51.460;5.710;2023-04-03T10:13:58;6.82;;;4.80;;
33022;SDS011;19390;51.460;5.710;2023-04-03T10:16:27;8.55;;;4.70;;
33022;SDS011;19390;51.460;5.710;2023-04-03T10:21:47;2.05;;;0.88;;
33022;SDS011;19390;51.460;5.710;2023-04-03T10:29:34;3.90;;;0.57;;
33022;SDS011;19390;51.460;5.710;2023-04-03T10:34:37;6.22;;;3.60;;
33022;SDS011;19390;51.460;5.710;2023-04-03T10:40:15;6.93;;;3.58;;
33022;SDS011;19390;51.460;5.710;2023-04-03T10:45:31;3.08;;;1.73;;
33022;SDS011;19390;51.460;5.710;2023-04-03T10:48:07;1.92;;;1.00;;
33022;SDS011;19390;51.460;5.710;2023-04-03T10:56:01;3.35;;;0.80;;
33022;SDS011;19390;51.460;5.710;2023-04-03T10:58:32;2.35;;;0.73;;
33022;SDS011;19390;51.460;5.710;2023-04-03T11:01:02;1.85;;;0.40;;
33022;SDS011;19390;51.460;5.710;2023-04-03T11:03:36;1.15;;;0.60;;
33022;SDS011;19390;51.460;5.710;2023-04-03T11:06:08;1.75;;;0.40;;
33022;SDS011;19390;51.460;5.710;2023-04-03T11:08:59;2.22;;;0.70;;
33022;SDS011;19390;51.460;5.710;2023-04-03T11:11:32;1.27;;;0.70;;
33022;SDS011;19390;51.460;5.710;2023-04-03T11:14:05;4.50;;;1.15;;
33022;SDS011;19390;51.460;5.710;2023-04-03T11:16:45;1.50;;;0.75;;
33022;SDS011;19390;51.460;5.710;2023-04-03T11:19:25;2.28;;;0.85;;
33022;SDS011;19390;51.460;5.710;2023-04-03T11:24:46;1.70;;;0.57;;
33022;SDS011;19390;51.460;5.710;2023-04-03T11:27:22;2.05;;;0.98;;
33022;SDS011;19390;51.460;5.710;2023-04-03T11:29:49;1.85;;;0.98;;
33022;SDS011;19390;51.460;5.710;2023-04-03T11:35:09;1.48;;;0.77;;
33022;SDS011;19390;51.460;5.710;2023-04-03T11:37:39;2.92;;;0.70;;
33022;SDS011;19390;51.460;5.710;2023-04-03T11:42:46;5.82;;;1.60;;
33022;SDS011;19390;51.460;5.710;2023-04-03T11:47:56;2.35;;;0.68;;
33022;SDS011;19390;51.460;5.710;2023-04-03T11:53:08;2.67;;;0.60;;
33022;SDS011;19390;51.460;5.710;2023-04-03T11:55:59;1.67;;;0.65;;
33022;SDS011;19390;51.460;5.710;2023-04-03T12:08:38;2.78;;;1.98;;
33022;SDS011;19390;51.460;5.710;2023-04-03T12:14:19;23.95;;;14.55;;
33022;SDS011;19390;51.460;5.710;2023-04-03T12:21:14;16.40;;;9.98;;
33022;SDS011;19390;51.460;5.710;2023-04-03T12:24:03;3.20;;;1.23;;
33022;SDS011;19390;51.460;5.710;2023-04-03T12:35:02;1.98;;;1.35;;
33022;SDS011;19390;51.460;5.710;2023-04-03T12:46:18;9.50;;;5.75;;
33022;SDS011;19390;51.460;5.710;2023-04-03T12:48:51;4.43;;;3.03;;
33022;SDS011;19390;51.460;5.710;2023-04-03T12:51:29;4.15;;;2.35;;
33022;SDS011;19390;51.460;5.710;2023-04-03T12:54:12;2.60;;;1.48;;
33022;SDS011;19390;51.460;5.710;2023-04-03T12:56:38;3.08;;;1.05;;
33022;SDS011;19390;51.460;5.710;2023-04-03T12:59:21;4.38;;;2.00;;
33022;SDS011;19390;51.460;5.710;2023-04-03T13:01:58;3.33;;;1.73;;
33022;SDS011;19390;51.460;5.710;2023-04-03T13:04:29;2.15;;;0.90;;
33022;SDS011;19390;51.460;5.710;2023-04-03T13:06:56;3.05;;;0.90;;
33022;SDS011;19390;51.460;5.710;2023-04-03T13:09:27;2.65;;;1.00;;
33022;SDS011;19390;51.460;5.710;2023-04-03T13:11:58;4.85;;;2.08;;
33022;SDS011;19390;51.460;5.710;2023-04-03T13:14:26;1.55;;;0.98;;
33022;SDS011;19390;51.460;5.710;2023-04-03T13:16:54;3.47;;;1.17;;
33022;SDS011;19390;51.460;5.710;2023-04-03T13:19:38;4.25;;;1.30;;
33022;SDS011;19390;51.460;5.710;2023-04-03T13:24:58;3.60;;;1.00;;
33022;SDS011;19390;51.460;5.710;2023-04-03T13:27:26;2.75;;;1.17;;
33022;SDS011;19390;51.460;5.710;2023-04-03T13:29:56;3.60;;;1.20;;
33022;SDS011;19390;51.460;5.710;2023-04-03T13:32:25;3.53;;;0.98;;
33022;SDS011;19390;51.460;5.710;2023-04-03T13:34:53;3.08;;;1.20;;
33022;SDS011;19390;51.460;5.710;2023-04-03T13:37:23;1.70;;;0.95;;
33022;SDS011;19390;51.460;5.710;2023-04-03T13:39:59;2.13;;;1.02;;
33022;SDS011;19390;51.460;5.710;2023-04-03T13:42:33;3.75;;;1.23;;
33022;SDS011;19390;51.460;5.710;2023-04-03T13:47:40;3.00;;;1.33;;
33022;SDS011;19390;51.460;5.710;2023-04-03T13:52:41;3.38;;;1.20;;
33022;SDS011;19390;51.460;5.710;2023-04-03T13:57:58;3.20;;;1.00;;
33022;SDS011;19390;51.460;5.710;2023-04-03T14:00:45;2.90;;;1.30;;
33022;SDS011;19390;51.460;5.710;2023-04-03T14:06:05;1.92;;;1.05;;
33022;SDS011;19390;51.460;5.710;2023-04-03T14:08:31;3.00;;;1.23;;
33022;SDS011;19390;51.460;5.710;2023-04-03T14:10:57;5.28;;;1.10;;
33022;SDS011;19390;51.460;5.710;2023-04-03T14:13:23;1.77;;;0.95;;
33022;SDS011;19390;51.460;5.710;2023-04-03T14:15:49;2.72;;;1.20;;
33022;SDS011;19390;51.460;5.710;2023-04-03T14:18:17;2.45;;;1.20;;
33022;SDS011;19390;51.460;5.710;2023-04-03T14:20:44;4.68;;;1.42;;
33022;SDS011;19390;51.460;5.710;2023-04-03T14:23:11;2.92;;;1.15;;
33022;SDS011;19390;51.460;5.710;2023-04-03T14:25:37;3.00;;;1.33;;
33022;SDS011;19390;51.460;5.710;2023-04-03T14:30:58;2.95;;;1.25;;
33022;SDS011;19390;51.460;5.710;2023-04-03T14:33:24;2.05;;;1.00;;
33022;SDS011;19390;51.460;5.710;2023-04-03T14:35:52;2.72;;;1.05;;
33022;SDS011;19390;51.460;5.710;2023-04-03T14:38:26;4.07;;;1.35;;
33022;SDS011;19390;51.460;5.710;2023-04-03T14:40:54;7.40;;;1.23;;
33022;SDS011;19390;51.460;5.710;2023-04-03T14:43:20;3.10;;;1.35;;
33022;SDS011;19390;51.460;5.710;2023-04-03T14:45:47;2.95;;;0.98;;
33022;SDS011;19390;51.460;5.710;2023-04-03T14:48:18;3.03;;;1.40;;
33022;SDS011;19390;51.460;5.710;2023-04-03T14:50:46;4.15;;;1.40;;
33022;SDS011;19390;51.460;5.710;2023-04-03T14:53:15;3.03;;;1.55;;
33022;SDS011;19390;51.460;5.710;2023-04-03T14:55:46;6.10;;;1.40;;
33022;SDS011;19390;51.460;5.710;2023-04-03T14:58:15;3.20;;;1.25;;
33022;SDS011;19390;51.460;5.710;2023-04-03T15:00:43;1.77;;;1.00;;
33022;SDS011;19390;51.460;5.710;2023-04-03T15:03:17;4.30;;;1.15;;
33022;SDS011;19390;51.460;5.710;2023-04-03T15:05:45;2.38;;;1.10;;
33022;SDS011;19390;51.460;5.710;2023-04-03T15:08:19;5.03;;;1.40;;
33022;SDS011;19390;51.460;5.710;2023-04-03T15:10:48;3.65;;;1.73;;
33022;SDS011;19390;51.460;5.710;2023-04-03T15:13:15;2.13;;;1.10;;
33022;SDS011;19390;51.460;5.710;2023-04-03T15:15:41;5.40;;;1.70;;
33022;SDS011;19390;51.460;5.710;2023-04-03T15:18:09;4.57;;;1.20;;
33022;SDS011;19390;51.460;5.710;2023-04-03T15:20:39;2.97;;;1.25;;
33022;SDS011;19390;51.460;5.710;2023-04-03T15:23:04;7.97;;;2.72;;
33022;SDS011;19390;51.460;5.710;2023-04-03T15:25:31;4.57;;;1.40;;
33022;SDS011;19390;51.460;5.710;2023-04-03T15:27:57;3.83;;;1.15;;
33022;SDS011;19390;51.460;5.710;2023-04-03T15:30:24;4.05;;;1.48;;
33022;SDS011;19390;51.460;5.710;2023-04-03T15:32:50;3.88;;;1.60;;
33022;SDS011;19390;51.460;5.710;2023-04-03T15:35:16;4.38;;;1.38;;
33022;SDS011;19390;51.460;5.710;2023-04-03T15:37:42;6.03;;;1.30;;
33022;SDS011;19390;51.460;5.710;2023-04-03T15:40:08;6.85;;;1.30;;
33022;SDS011;19390;51.460;5.710;2023-04-03T15:42:34;4.40;;;1.10;;
33022;SDS011;19390;51.460;5.710;2023-04-03T15:45:00;2.40;;;1.23;;
33022;SDS011;19390;51.460;5.710;2023-04-03T15:47:25;3.67;;;1.27;;
33022;SDS011;19390;51.460;5.710;2023-04-03T15:49:52;3.03;;;1.20;;
33022;SDS011;19390;51.460;5.710;2023-04-03T15:52:19;4.25;;;1.15;;
33022;SDS011;19390;51.460;5.710;2023-04-03T15:54:45;5.57;;;1.33;;
33022;SDS011;19390;51.460;5.710;2023-04-03T15:57:10;4.82;;;1.02;;
33022;SDS011;19390;51.460;5.710;2023-04-03T15:59:36;2.28;;;0.95;;
33022;SDS011;19390;51.460;5.710;2023-04-03T16:02:02;4.75;;;1.42;;
33022;SDS011;19390;51.460;5.710;2023-04-03T16:04:30;2.80;;;1.05;;
33022;SDS011;19390;51.460;5.710;2023-04-03T16:06:55;3.63;;;1.30;;
33022;SDS011;19390;51.460;5.710;2023-04-03T16:09:21;4.55;;;1.00;;
33022;SDS011;19390;51.460;5.710;2023-04-03T16:11:47;4.75;;;1.63;;
33022;SDS011;19390;51.460;5.710;2023-04-03T16:14:13;2.28;;;0.90;;
33022;SDS011;19390;51.460;5.710;2023-04-03T16:16:38;3.95;;;1.50;;
33022;SDS011;19390;51.460;5.710;2023-04-03T16:19:04;3.67;;;1.35;;
33022;SDS011;19390;51.460;5.710;2023-04-03T16:21:31;2.75;;;1.23;;
33022;SDS011;19390;51.460;5.710;2023-04-03T16:23:58;3.28;;;1.50;;
33022;SDS011;19390;51.460;5.710;2023-04-03T16:26:24;2.17;;;0.95;;
33022;SDS011;19390;51.460;5.710;2023-04-03T16:28:50;2.67;;;1.20;;
33022;SDS011;19390;51.460;5.710;2023-04-03T16:31:16;3.30;;;1.10;;
33022;SDS011;19390;51.460;5.710;2023-04-03T16:33:42;3.30;;;1.20;;
33022;SDS011;19390;51.460;5.710;2023-04-03T16:36:07;3.97;;;1.10;;
33022;SDS011;19390;51.460;5.710;2023-04-03T16:38:33;4.93;;;1.30;;
33022;SDS011;19390;51.460;5.710;2023-04-03T16:41:00;3.63;;;1.30;;
33022;SDS011;19390;51.460;5.710;2023-04-03T16:43:29;8.82;;;1.17;;
33022;SDS011;19390;51.460;5.710;2023-04-03T16:45:55;2.15;;;1.02;;